Sioux — NJOV — position and weather

sailwx.info

Track history (hours):
 
Tides and Currents Weather Stations Pressure Air Temp Water Temp Dewpoint Dewpoint Depression Visibility Wind Speed Wind Dir Waves Ship Positions

Sioux

Last reported at 2017-Dec-21 23:39 UTC. Time now 2018-Jan-18 07:56 UTC.
Position N 32°43' W 117°12'.
Warning: this ship's position is 27 days out of date.

Length 69 m; draft 4.4 m.

Type: Diving. MMSI: 367884000.

Date/timePositionNaut miles runAvg speedWind from/ knotsBaromVisibWave heightAir tempDewpointWater temp
2017-Dec-21 23:39N 32°43' W 117°12'110.3
2017-Dec-21 23:30N 32°43' W 117°13'5 9.3
2017-Dec-21 22:55N 32°37' W 117°14'511.0
2017-Dec-21 22:30N 32°37' W 117°19'713.3
2017-Dec-21 22:00N 32°37' W 117°27'714.6
2017-Dec-21 21:30N 32°37' W 117°36'1 2.2
2017-Dec-21 21:01N 32°37' W 117°37'714.1
2017-Dec-21 20:30N 32°37' W 117°46'714.0
2017-Dec-21 20:00N 32°37' W 117°54'1312.0
2017-Dec-21 18:55N 32°38' W 117°38'714.5
2017-Dec-21 18:27N 32°38' W 117°30'1013.6
2017-Dec-21 17:44N 32°38' W 117°19'  
Track history (hours):
 
Tides and Currents Weather Stations Pressure Air Temp Water Temp Dewpoint Dewpoint Depression Visibility Wind Speed Wind Dir Waves Ship Positions

Sioux

Last reported at 2017-Dec-21 23:39 UTC. Time now 2018-Jan-18 07:56 UTC.
Position N 32°43' W 117°12'.
Warning: this ship's position is 27 days out of date.

Length 69 m; draft 4.4 m.

Type: Diving. MMSI: 367884000.

Date/timePositionNaut miles runAvg speedWind from/ knotsBaromVisibWave heightAir tempDewpointWater temp
2017-Dec-21 23:39N 32°43' W 117°12'110.3
2017-Dec-21 23:30N 32°43' W 117°13'5 9.3
2017-Dec-21 22:55N 32°37' W 117°14'511.0
2017-Dec-21 22:30N 32°37' W 117°19'713.3
2017-Dec-21 22:00N 32°37' W 117°27'714.6
2017-Dec-21 21:30N 32°37' W 117°36'1 2.2
2017-Dec-21 21:01N 32°37' W 117°37'714.1
2017-Dec-21 20:30N 32°37' W 117°46'714.0
2017-Dec-21 20:00N 32°37' W 117°54'1312.0
2017-Dec-21 18:55N 32°38' W 117°38'714.5
2017-Dec-21 18:27N 32°38' W 117°30'1013.6
2017-Dec-21 17:44N 32°38' W 117°19'  

Dump ship's entire track history